Time;durP1;ratioP1;P1;durP2;ratioP2;P2;SDS_P1;SDS_P2;PMS_P1;PMS_P2;Temp;Humidity;BMP_temperature;BMP_pressure;BME280_temperature;BME280_humidity;BME280_pressure;Samples;Min_cycle;Max_cycle;Signal;HPM_P1;HPM_P2
2023/01/10 00:00:52;;;;;;;;;;;205.40;2252.80;;;;;;5037014;28;20036;-83
2023/01/10 00:03:18;;;;;;;12.80;7.00;;;205.40;2252.80;;;;;;5032804;28;19904;-85
2023/01/10 00:05:43;;;;;;;;;;;205.50;2252.80;;;;;;5032280;28;20021;-86
2023/01/10 00:08:15;;;;;;;17.67;9.25;;;205.50;2252.80;;;;;;5034055;28;20420;-85
2023/01/10 00:10:40;;;;;;;13.32;8.13;;;205.50;2252.80;;;;;;5035918;28;20029;-83
2023/01/10 00:13:24;;;;;;;;;;;205.50;2252.80;;;;;;5036684;28;20019;-84
2023/01/10 00:15:51;;;;;;;14.90;6.63;;;205.50;2252.80;;;;;;5033280;28;19912;-84
2023/01/10 00:18:17;;;;;;;21.70;10.88;;;205.40;2252.80;;;;;;5035319;28;20021;-85
2023/01/10 00:20:46;;;;;;;14.48;7.75;;;205.50;2252.80;;;;;;5053200;28;20029;-86
2023/01/10 00:23:12;;;;;;;16.52;7.95;;;205.50;2252.80;;;;;;5035970;28;20057;-85
2023/01/10 00:25:38;;;;;;;14.70;7.50;;;205.50;2252.80;;;;;;5035063;28;20486;-85
2023/01/10 00:28:18;;;;;;;19.73;9.40;;;205.50;2252.80;;;;;;5036186;28;20017;-86
2023/01/10 00:30:59;;;;;;;16.45;8.32;;;205.50;2252.80;;;;;;5035325;28;20029;-85
2023/01/10 00:33:26;;;;;;;19.40;9.93;;;205.50;2252.80;;;;;;5051747;28;20123;-86
2023/01/10 00:35:51;;;;;;;14.65;8.13;;;205.50;2252.80;;;;;;5035722;28;20075;-84
2023/01/10 00:38:17;;;;;;;;;;;205.40;2252.80;;;;;;5036056;28;20100;-86
2023/01/10 00:40:44;;;;;;;18.42;9.77;;;205.40;2252.80;;;;;;5034846;28;19916;-84
2023/01/10 00:45:54;;;;;;;26.63;12.57;;;205.40;2252.80;;;;;;5052855;28;20071;-81
2023/01/10 00:48:19;;;;;;;;;;;205.30;2252.80;;;;;;5038227;28;20017;-85
2023/01/10 00:50:45;;;;;;;24.48;12.73;;;205.30;2252.80;;;;;;5039508;28;20381;-83
2023/01/10 00:53:11;;;;;;;22.08;12.25;;;205.30;2252.80;;;;;;5040373;28;20021;-85
2023/01/10 00:55:37;;;;;;;25.42;13.82;;;205.30;2252.80;;;;;;5039855;28;20128;-85
2023/01/10 00:58:03;;;;;;;;;;;205.30;2252.80;;;;;;5041209;28;20076;-84
2023/01/10 01:00:29;;;;;;;22.40;11.95;;;205.30;2252.80;;;;;;5037452;28;20408;-85
2023/01/10 01:02:55;;;;;;;23.45;11.63;;;205.20;2252.80;;;;;;5039493;28;20032;-83
2023/01/10 01:05:21;;;;;;;18.38;10.73;;;205.20;2252.80;;;;;;5039674;28;20025;-84
2023/01/10 01:07:50;;;;;;;20.27;10.45;;;205.20;2252.80;;;;;;5039919;28;20032;-84
2023/01/10 01:10:25;;;;;;;25.13;12.82;;;205.30;2252.80;;;;;;5039418;28;20028;-83
2023/01/10 01:12:52;;;;;;;25.17;12.75;;;205.20;2252.80;;;;;;5039514;28;20032;-86
2023/01/10 01:15:18;;;;;;;22.88;12.10;;;205.30;2252.80;;;;;;5039468;28;20083;-87
2023/01/10 01:17:44;;;;;;;;;;;205.30;2252.80;;;;;;5039714;28;21113;-85
2023/01/10 01:20:10;;;;;;;22.65;12.48;;;205.30;2252.80;;;;;;5039754;28;19951;-83
2023/01/10 01:22:36;;;;;;;23.17;12.90;;;205.30;2252.80;;;;;;5038112;28;20129;-83
2023/01/10 01:25:03;;;;;;;;;;;205.30;2252.80;;;;;;5040633;28;20079;-86
2023/01/10 01:27:30;;;;;;;18.73;10.20;;;205.40;2252.80;;;;;;5056662;28;19908;-85
2023/01/10 01:29:56;;;;;;;22.25;13.13;;;205.40;2252.80;;;;;;5038784;28;20029;-83
2023/01/10 01:32:22;;;;;;;;;;;205.40;2252.80;;;;;;5039382;28;20608;-84
2023/01/10 01:34:47;;;;;;;26.48;14.13;;;205.50;2252.80;;;;;;5038638;28;19905;-85
2023/01/10 01:37:13;;;;;;;;;;;205.50;2252.80;;;;;;5057303;28;20475;-85
2023/01/10 01:39:39;;;;;;;25.33;12.30;;;205.40;2252.80;;;;;;5038604;28;19916;-85
2023/01/10 01:42:05;;;;;;;;;;;205.30;2252.80;;;;;;5036777;28;20029;-84
2023/01/10 01:44:34;;;;;;;30.27;14.13;;;205.20;2252.80;;;;;;5038402;28;19905;-87
2023/01/10 01:47:06;;;;;;;27.38;14.05;;;205.10;2252.80;;;;;;5039334;28;20025;-85
2023/01/10 01:49:37;;;;;;;25.25;13.73;;;205.20;2252.80;;;;;;5039197;28;20021;-86
2023/01/10 01:52:09;;;;;;;28.55;14.80;;;205.20;2252.80;;;;;;5030831;28;20031;-87
2023/01/10 01:54:35;;;;;;;27.88;15.05;;;205.20;2252.80;;;;;;5030781;28;20030;-82
2023/01/10 01:57:11;;;;;;;28.63;13.38;;;205.30;2252.80;;;;;;5027017;28;20499;-85
2023/01/10 01:59:49;;;;;;;30.90;15.63;;;205.10;2252.80;;;;;;5033745;28;20112;-82
2023/01/10 02:02:24;;;;;;;34.28;14.32;;;205.10;2252.80;;;;;;5022618;28;20069;-83
2023/01/10 02:04:59;;;;;;;25.60;13.32;;;205.10;2252.80;;;;;;5030910;28;20017;-83
2023/01/10 02:07:30;;;;;;;24.88;13.85;;;204.90;2252.80;;;;;;5049713;28;20238;-83
2023/01/10 02:10:05;;;;;;;28.23;14.32;;;204.90;2252.80;;;;;;5036248;28;20029;-82
2023/01/10 02:12:32;;;;;;;26.25;14.50;;;204.90;2252.80;;;;;;5033798;28;20090;-83
2023/01/10 02:14:58;;;;;;;28.73;14.10;;;204.80;2252.80;;;;;;5036156;28;20041;-83
2023/01/10 02:17:24;;;;;;;30.77;15.25;;;180.10;2252.80;;;;;;5033359;28;20025;-83
2023/01/10 02:19:51;;;;;;;;;;;180.10;2252.80;;;;;;5024726;28;20133;-82
2023/01/10 02:22:38;;;;;;;20.23;12.57;;;180.10;2252.80;;;;;;5026804;28;19961;-83
2023/01/10 02:25:48;;;;;;;24.15;13.38;;;180.10;2252.80;;;;;;5036088;28;20037;-82
2023/01/10 02:28:26;;;;;;;27.10;13.10;;;180.10;2252.80;;;;;;5044502;28;20029;-82
2023/01/10 02:31:16;;;;;;;26.75;13.43;;;180.10;2252.80;;;;;;5034149;28;20033;-83
2023/01/10 02:34:08;;;;;;;24.83;13.00;;;204.80;2252.80;;;;;;5031622;28;20029;-82
2023/01/10 02:36:55;;;;;;;29.08;14.52;;;204.80;2252.80;;;;;;5034152;28;20092;-82
2023/01/10 02:39:33;;;;;;;26.15;13.63;;;204.90;2252.80;;;;;;5035141;28;20056;-81
2023/01/10 02:42:06;;;;;;;27.92;14.27;;;204.90;2252.80;;;;;;5035873;28;20029;-83
2023/01/10 02:44:53;;;;;;;25.90;14.65;;;204.90;2252.80;;;;;;5027315;28;20125;-83
2023/01/10 02:47:19;;;;;;;19.25;10.70;;;205.00;2252.80;;;;;;5025463;28;20033;-82
2023/01/10 02:49:46;;;;;;;;;;;205.00;2252.80;;;;;;5035160;28;20033;-80
2023/01/10 02:52:29;;;;;;;25.95;13.50;;;205.00;2252.80;;;;;;5025123;28;19913;-82
2023/01/10 02:55:00;;;;;;;28.33;14.80;;;205.00;2252.80;;;;;;5027426;28;20041;-82
2023/01/10 02:57:49;;;;;;;25.05;13.70;;;205.10;2252.80;;;;;;5028846;28;20388;-82
2023/01/10 03:00:43;;;;;;;23.45;12.85;;;205.10;2252.80;;;;;;5038038;28;20021;-82
2023/01/10 03:03:36;;;;;;;24.75;13.27;;;205.10;2252.80;;;;;;5031832;28;20033;-82
2023/01/10 03:06:14;;;;;;;22.15;13.48;;;205.10;2252.80;;;;;;5032983;28;20054;-82
2023/01/10 03:08:55;;;;;;;25.70;11.80;;;205.20;2252.80;;;;;;5030321;28;20025;-82
2023/01/10 03:11:39;;;;;;;21.02;11.70;;;205.10;2252.80;;;;;;5032263;28;20488;-81
2023/01/10 03:14:19;;;;;;;22.85;12.05;;;205.10;2252.80;;;;;;5033698;28;20491;-82
2023/01/10 03:16:51;;;;;;;24.98;11.93;;;205.10;2252.80;;;;;;5029117;28;20065;-82
2023/01/10 03:19:22;;;;;;;23.90;14.00;;;205.10;2252.80;;;;;;5022908;28;20021;-82
2023/01/10 03:21:51;;;;;;;26.63;13.75;;;205.10;2252.80;;;;;;5033799;28;20037;-82
2023/01/10 03:24:23;;;;;;;21.15;13.13;;;205.10;2252.80;;;;;;5034156;28;20022;-82
2023/01/10 03:26:57;;;;;;;25.90;13.40;;;205.00;2252.80;;;;;;5035093;28;20475;-82
2023/01/10 03:29:40;;;;;;;22.10;13.60;;;205.00;2252.80;;;;;;5032698;28;20029;-86
2023/01/10 03:32:08;;;;;;;25.00;13.48;;;205.00;2252.80;;;;;;5033003;28;20483;-78
2023/01/10 03:34:34;;;;;;;25.60;13.77;;;205.00;2252.80;;;;;;5032034;28;20067;-79
2023/01/10 03:37:19;;;;;;;23.95;13.43;;;204.90;2252.80;;;;;;5032489;28;20037;-79
2023/01/10 03:40:10;;;;;;;26.67;13.88;;;204.90;2252.80;;;;;;5031568;28;20041;-78
2023/01/10 03:45:53;;;;;;;25.92;13.25;;;204.80;1920.00;;;;;;5034307;28;20068;-82
2023/01/10 03:48:21;;;;;;;25.83;13.70;;;180.10;2252.80;;;;;;5032608;28;20028;-81
2023/01/10 03:50:49;;;;;;;28.88;14.60;;;204.80;2252.80;;;;;;5032719;28;20029;-79
2023/01/10 03:53:15;;;;;;;28.33;15.60;;;180.10;2252.80;;;;;;5033632;28;20053;-78
2023/01/10 03:55:43;;;;;;;28.13;13.98;;;204.80;2252.80;;;;;;5032342;28;20411;-79
2023/01/10 03:58:08;;;;;;;25.33;14.02;;;204.80;2252.80;;;;;;5032155;28;20049;-78
2023/01/10 04:00:34;;;;;;;;;;;204.90;2252.80;;;;;;5032330;28;20518;-79
2023/01/10 04:03:00;;;;;;;20.85;11.95;;;205.00;2252.80;;;;;;5032340;28;19904;-78
2023/01/10 04:05:25;;;;;;;;;;;205.10;2252.80;;;;;;5034351;28;20060;-79
2023/01/10 04:07:51;;;;;;;19.67;11.15;;;205.20;2252.80;;;;;;5032258;28;20356;-78
2023/01/10 04:10:17;;;;;;;18.33;10.50;;;205.30;2252.80;;;;;;5032133;28;20029;-79
2023/01/10 04:12:43;;;;;;;23.10;11.25;;;205.30;2252.80;;;;;;5032164;28;20026;-80
2023/01/10 04:15:08;;;;;;;;;;;205.50;2252.80;;;;;;5032632;28;20037;-80
2023/01/10 04:17:34;;;;;;;15.52;9.82;;;205.60;2252.80;;;;;;5032025;28;19905;-79
2023/01/10 04:20:00;;;;;;;;;;;205.60;2252.80;;;;;;5032384;28;20029;-79
2023/01/10 04:22:26;;;;;;;12.60;7.47;;;205.70;2252.80;;;;;;5031874;28;20362;-79
2023/01/10 04:24:52;;;;;;;;;;;230.40;2252.80;;;;;;5032681;28;20112;-79
2023/01/10 04:27:19;;;;;;;8.40;5.10;;;230.40;2252.80;;;;;;5032245;28;19996;-79
2023/01/10 04:29:45;;;;;;;9.68;5.63;;;230.40;2201.60;;;;;;5032057;28;20025;-79
2023/01/10 04:32:10;;;;;;;;;;;230.40;1920.00;;;;;;5033684;28;20089;-79
2023/01/10 04:34:36;;;;;;;7.75;4.47;;;230.40;2252.80;;;;;;5033187;28;20370;-79
2023/01/10 04:37:02;;;;;;;;;;;205.70;2252.80;;;;;;5033625;28;20033;-81
2023/01/10 04:39:27;;;;;;;12.48;7.28;;;230.40;2252.80;;;;;;5032783;28;19917;-79
2023/01/10 04:41:53;;;;;;;;;;;230.40;2252.80;;;;;;5032478;28;20030;-79
2023/01/10 04:44:19;;;;;;;12.45;7.05;;;230.40;2252.80;;;;;;5031594;28;20332;-79
2023/01/10 04:46:44;;;;;;;;;;;205.70;2252.80;;;;;;5031565;28;20103;-78
2023/01/10 04:49:10;;;;;;;11.23;6.50;;;205.70;2252.80;;;;;;5031708;28;19948;-79
2023/01/10 04:51:36;;;;;;;10.27;6.20;;;205.60;2252.80;;;;;;5031814;28;20423;-79
2023/01/10 04:54:01;;;;;;;;;;;205.50;2252.80;;;;;;5031993;28;20076;-80
2023/01/10 04:56:27;;;;;;;8.68;5.68;;;205.50;2252.80;;;;;;5032651;28;19921;-79
2023/01/10 04:58:53;;;;;;;;;;;205.50;2252.80;;;;;;5031771;28;20350;-78
2023/01/10 05:01:21;;;;;;;9.38;5.68;;;205.40;2252.80;;;;;;5032572;28;19972;-79
2023/01/10 05:03:48;;;;;;;10.57;6.80;;;205.40;2252.80;;;;;;5031791;28;20060;-78
2023/01/10 05:06:15;;;;;;;10.20;7.00;;;205.30;2252.80;;;;;;5031542;28;20107;-79
2023/01/10 05:08:41;;;;;;;11.35;6.32;;;205.30;2252.80;;;;;;5031029;28;20029;-79
2023/01/10 05:11:07;;;;;;;;;;;205.20;2252.80;;;;;;5030376;28;20045;-78
2023/01/10 05:13:32;;;;;;;9.43;5.72;;;205.20;2252.80;;;;;;5032704;28;20385;-79
2023/01/10 05:15:58;;;;;;;;;;;205.20;2252.80;;;;;;5031144;28;20087;-80
2023/01/10 05:18:25;;;;;;;12.07;6.28;;;205.30;2252.80;;;;;;5032574;28;20380;-78
2023/01/10 05:20:51;;;;;;;9.32;6.65;;;205.30;2252.80;;;;;;5029890;28;20033;-79
2023/01/10 05:23:16;;;;;;;;;;;205.30;2252.80;;;;;;5032680;28;20416;-79
2023/01/10 05:25:42;;;;;;;8.20;5.40;;;205.30;2252.80;;;;;;5031398;28;20365;-79
2023/01/10 05:28:08;;;;;;;;;;;205.20;2252.80;;;;;;5031743;28;20089;-79
2023/01/10 05:30:34;;;;;;;8.90;5.45;;;205.30;2252.80;;;;;;5030637;28;19905;-79
2023/01/10 05:33:02;;;;;;;8.85;5.82;;;205.20;2252.80;;;;;;5032526;28;20029;-79
2023/01/10 05:35:28;;;;;;;10.35;6.97;;;205.20;2252.80;;;;;;5033387;28;20088;-80
2023/01/10 05:37:53;;;;;;;;;;;205.30;2252.80;;;;;;5035637;28;20430;-80
2023/01/10 05:40:19;;;;;;;9.95;7.15;;;205.30;2252.80;;;;;;5034784;28;19909;-79
2023/01/10 05:42:44;;;;;;;;;;;205.30;2252.80;;;;;;5036609;28;20041;-78
2023/01/10 05:45:10;;;;;;;12.73;7.00;;;205.20;2252.80;;;;;;5034805;28;19911;-78
2023/01/10 05:47:36;;;;;;;;;;;205.20;2252.80;;;;;;5034981;28;20632;-78
2023/01/10 05:50:02;;;;;;;6.53;4.93;;;205.20;2252.80;;;;;;5034441;28;20358;-78
2023/01/10 05:52:27;;;;;;;;;;;205.20;2252.80;;;;;;5035175;28;20159;-77
2023/01/10 05:54:53;;;;;;;7.05;4.95;;;205.20;2252.80;;;;;;5034574;28;20359;-78
2023/01/10 05:57:20;;;;;;;;;;;205.20;2252.80;;;;;;5034784;28;20056;-78
2023/01/10 05:59:46;;;;;;;5.32;3.65;;;205.20;2252.80;;;;;;5034371;28;20040;-77
2023/01/10 06:02:12;;;;;;;;;;;205.20;2252.80;;;;;;5034827;28;20049;-78
2023/01/10 06:04:37;;;;;;;6.93;3.15;;;205.20;2252.80;;;;;;5035533;28;19912;-78
2023/01/10 06:07:03;;;;;;;;;;;205.20;2252.80;;;;;;5034264;28;20041;-78
2023/01/10 06:09:29;;;;;;;5.68;3.25;;;205.20;2252.80;;;;;;5034553;28;19909;-77
2023/01/10 06:11:55;;;;;;;4.28;2.50;;;205.20;2252.80;;;;;;5035623;28;20063;-83
2023/01/10 06:14:21;;;;;;;;;;;205.10;2252.80;;;;;;5034809;28;20477;-78
2023/01/10 06:16:46;;;;;;;9.27;2.50;;;205.20;2252.80;;;;;;5034231;28;20264;-79
2023/01/10 06:19:13;;;;;;;6.63;3.03;;;205.10;2252.80;;;;;;5034322;28;20545;-88
2023/01/10 06:21:38;;;;;;;3.92;2.55;;;205.10;2252.80;;;;;;5034153;28;20064;-80
2023/01/10 06:24:04;;;;;;;;;;;205.10;2252.80;;;;;;5034885;28;20033;-87
2023/01/10 06:26:30;;;;;;;3.45;2.13;;;205.10;2252.80;;;;;;5033686;28;20347;-91
2023/01/10 06:28:57;;;;;;;;;;;205.10;2252.80;;;;;;5035653;28;20362;-78
2023/01/10 06:31:22;;;;;;;2.33;1.60;;;205.10;2252.80;;;;;;5033986;28;20256;-78
2023/01/10 06:33:51;;;;;;;;;;;205.10;2252.80;;;;;;5034062;28;20139;-78
2023/01/10 06:36:17;;;;;;;3.25;2.00;;;205.10;2252.80;;;;;;5034654;28;20012;-81
2023/01/10 06:38:43;;;;;;;7.55;2.28;;;205.00;2252.80;;;;;;5032574;28;20037;-83
2023/01/10 06:41:11;;;;;;;;;;;205.00;2252.80;;;;;;5034285;28;20026;-84
2023/01/10 06:43:41;;;;;;;3.92;2.20;;;205.00;2252.80;;;;;;5028918;28;19928;-84
2023/01/10 06:46:08;;;;;;;3.42;2.30;;;205.00;2252.80;;;;;;5039612;28;20014;-84
2023/01/10 06:48:37;;;;;;;4.18;2.42;;;205.00;2252.80;;;;;;5040456;28;20029;-84
2023/01/10 06:51:06;;;;;;;5.25;2.70;;;205.00;2252.80;;;;;;5034198;28;20466;-83
2023/01/10 06:53:32;;;;;;;8.60;3.85;;;205.10;2252.80;;;;;;5033668;28;20029;-80
2023/01/10 06:55:57;;;;;;;;;;;205.10;2252.80;;;;;;5034123;28;20048;-80
2023/01/10 06:58:23;;;;;;;9.75;3.88;;;205.10;2252.80;;;;;;5033470;28;20433;-80
2023/01/10 07:00:49;;;;;;;;;;;205.10;2252.80;;;;;;5034170;28;20025;-83
2023/01/10 07:03:15;;;;;;;3.60;2.20;;;205.10;2252.80;;;;;;5033882;28;20304;-84
2023/01/10 07:05:40;;;;;;;;;;;205.10;2252.80;;;;;;5034382;28;20029;-81
2023/01/10 07:08:06;;;;;;;3.50;1.95;;;205.10;2252.80;;;;;;5033635;28;20000;-81
2023/01/10 07:10:32;;;;;;;;;;;205.10;2252.80;;;;;;5035172;28;20029;-83
2023/01/10 07:12:58;;;;;;;3.53;2.15;;;205.10;2252.80;;;;;;5032968;28;19988;-83
2023/01/10 07:15:25;;;;;;;4.55;2.28;;;205.00;2252.80;;;;;;5033571;28;20368;-79
2023/01/10 07:17:50;;;;;;;4.25;2.15;;;205.00;2252.80;;;;;;5032139;28;20498;-80
2023/01/10 07:20:16;;;;;;;;;;;205.00;2252.80;;;;;;5035314;28;20025;-80
2023/01/10 07:22:42;;;;;;;3.83;2.22;;;205.00;2252.80;;;;;;5034032;28;19905;-81
2023/01/10 07:25:07;;;;;;;;;;;204.90;2252.80;;;;;;5030321;28;20035;-78
2023/01/10 07:27:34;;;;;;;4.63;2.60;;;204.90;2252.80;;;;;;5031553;28;19905;-78
2023/01/10 07:29:59;;;;;;;3.03;1.80;;;204.90;2252.80;;;;;;5034012;28;20408;-80
2023/01/10 07:32:25;;;;;;;;;;;204.90;2252.80;;;;;;5034762;28;20034;-81
2023/01/10 07:34:51;;;;;;;3.97;2.15;;;205.00;2252.80;;;;;;5032893;28;19953;-81
2023/01/10 07:37:16;;;;;;;;;;;205.00;2252.80;;;;;;5034506;28;20029;-78
2023/01/10 07:39:42;;;;;;;2.92;1.80;;;205.00;2252.80;;;;;;5039101;28;20431;-81
2023/01/10 07:42:08;;;;;;;;;;;205.00;2252.80;;;;;;5033854;28;20052;-84
2023/01/10 07:44:34;;;;;;;4.13;2.05;;;205.00;2252.80;;;;;;5027036;28;19951;-79
2023/01/10 07:46:59;;;;;;;;;;;205.00;2252.80;;;;;;5032476;28;20026;-85
2023/01/10 07:49:25;;;;;;;3.28;2.13;;;205.00;2252.80;;;;;;5032933;28;19963;-81
2023/01/10 07:51:51;;;;;;;;;;;205.10;2252.80;;;;;;5035813;28;20116;-80
2023/01/10 07:54:18;;;;;;;5.97;2.85;;;205.10;2252.80;;;;;;5025765;28;19905;-86
2023/01/10 07:56:46;;;;;;;5.60;2.40;;;205.10;2252.80;;;;;;5033147;28;20044;-79
2023/01/10 07:59:12;;;;;;;6.53;3.38;;;205.00;2252.80;;;;;;5033585;28;20025;-79
2023/01/10 08:01:38;;;;;;;5.20;3.08;;;205.00;2252.80;;;;;;5032232;28;20060;-80
2023/01/10 08:04:04;;;;;;;;;;;205.10;2252.80;;;;;;5034572;28;20102;-80
2023/01/10 08:06:30;;;;;;;7.72;4.32;;;205.10;2252.80;;;;;;5032808;28;20351;-82
2023/01/10 08:08:56;;;;;;;6.15;3.95;;;205.10;2252.80;;;;;;5032278;28;20057;-76
2023/01/10 08:11:22;;;;;;;;;;;205.10;2252.80;;;;;;5036542;28;20490;-90
2023/01/10 08:13:47;;;;;;;9.27;3.85;;;205.10;2252.80;;;;;;5033418;28;19904;-83
2023/01/10 08:16:14;;;;;;;;;;;205.00;2252.80;;;;;;5031018;28;20048;-80
2023/01/10 08:18:42;;;;;;;4.55;2.50;;;205.00;2252.80;;;;;;5030740;28;19968;-87
2023/01/10 08:21:08;;;;;;;6.30;2.90;;;205.00;2252.80;;;;;;5023887;28;20064;-86
2023/01/10 08:23:34;;;;;;;4.70;2.60;;;205.00;2252.80;;;;;;5032810;28;20025;-84
2023/01/10 08:26:00;;;;;;;;;;;205.10;2252.80;;;;;;5037161;28;20021;-84
2023/01/10 08:28:26;;;;;;;4.35;2.28;;;205.10;2252.80;;;;;;5032885;28;20363;-81
2023/01/10 08:30:54;;;;;;;8.90;4.47;;;205.40;2252.80;;;;;;5032404;28;20486;-84
2023/01/10 08:33:22;;;;;;;6.05;2.88;;;205.20;2252.80;;;;;;5032873;28;20029;-83
2023/01/10 08:35:48;;;;;;;4.13;2.33;;;205.20;2252.80;;;;;;5020055;28;20069;-79
2023/01/10 08:38:14;;;;;;;;;;;205.20;2252.80;;;;;;5030548;28;20054;-88
2023/01/10 08:40:39;;;;;;;7.00;2.60;;;205.20;2252.80;;;;;;5043911;28;19908;-79
2023/01/10 08:43:07;;;;;;;;;;;205.10;2252.80;;;;;;5034577;28;20167;-88
2023/01/10 08:45:33;;;;;;;;;;;205.10;2252.80;;;;;;5029303;28;19905;-78
2023/01/10 08:47:59;;;;;;;5.35;2.10;;;205.10;2252.80;;;;;;5037887;28;20007;-80
2023/01/10 08:50:24;;;;;;;;;;;205.10;2252.80;;;;;;5032534;28;20492;-80
2023/01/10 08:52:50;;;;;;;3.08;1.80;;;205.10;2252.80;;;;;;5030483;28;19905;-79
2023/01/10 08:55:16;;;;;;;;;;;205.00;2252.80;;;;;;5031749;28;20064;-82
2023/01/10 08:57:42;;;;;;;7.20;3.63;;;205.10;2252.80;;;;;;5026794;28;19917;-80
2023/01/10 09:00:09;;;;;;;14.40;6.72;;;205.10;2252.80;;;;;;5034168;28;20032;-83
2023/01/10 09:02:34;;;;;;;8.90;3.97;;;205.00;2252.80;;;;;;5027821;28;20030;-79
2023/01/10 09:05:00;;;;;;;;;;;205.10;2252.80;;;;;;5034308;28;20021;-80
2023/01/10 09:07:26;;;;;;;6.30;1.92;;;205.10;2252.80;;;;;;5034431;28;20362;-79
2023/01/10 09:09:51;;;;;;;;;;;205.10;2252.80;;;;;;5040475;28;20021;-78
2023/01/10 09:15:01;;;;;;;5.45;2.92;;;205.20;2252.80;;;;;;5056333;28;20031;-82
2023/01/10 09:17:27;;;;;;;;;;;205.20;2252.80;;;;;;5056875;28;20108;-78
2023/01/10 09:19:54;;;;;;;3.55;1.92;;;205.20;2252.80;;;;;;5038891;28;19904;-81
2023/01/10 09:22:20;;;;;;;4.60;2.63;;;205.20;2252.80;;;;;;5038731;28;20107;-79
2023/01/10 09:24:46;;;;;;;;;;;205.20;2252.80;;;;;;5038805;28;20052;-80
2023/01/10 09:27:11;;;;;;;4.35;2.08;;;205.20;2252.80;;;;;;5056369;28;20274;-79
2023/01/10 09:29:37;;;;;;;3.90;2.15;;;205.20;2252.80;;;;;;5039136;28;20459;-83
2023/01/10 09:32:04;;;;;;;;;;;205.20;2252.80;;;;;;5039063;28;20064;-85
2023/01/10 09:34:29;;;;;;;5.25;2.65;;;205.20;2252.80;;;;;;5039304;28;19911;-86
2023/01/10 09:36:55;;;;;;;;;;;205.30;2252.80;;;;;;5039161;28;20044;-91
2023/01/10 09:39:21;;;;;;;4.70;2.55;;;205.30;2252.80;;;;;;5038539;28;19960;-86
2023/01/10 09:42:05;;;;;;;;;;;205.30;2252.80;;;;;;5037942;28;20036;-82
2023/01/10 09:44:43;;;;;;;6.05;2.72;;;205.30;2252.80;;;;;;5035501;28;19905;-90
2023/01/10 09:47:33;;;;;;;4.55;2.83;;;205.20;2252.80;;;;;;5039435;28;20029;-94
2023/01/10 09:50:17;;;;;;;9.50;4.20;;;205.30;2252.80;;;;;;5037452;28;20025;-90
2023/01/10 09:52:48;;;;;;;6.82;3.28;;;205.30;2252.80;;;;;;5042974;28;20033;-94
2023/01/10 09:55:47;;;;;;;6.18;4.10;;;205.20;2252.80;;;;;;5057217;28;20159;-83
2023/01/10 09:58:15;;;;;;;10.95;5.05;;;205.20;2252.80;;;;;;5034396;28;20040;-91
2023/01/10 10:00:49;;;;;;;27.73;11.05;;;205.30;2252.80;;;;;;5041190;28;20025;-90
2023/01/10 10:03:24;;;;;;;19.38;8.25;;;205.20;2252.80;;;;;;5046071;28;20116;-90
2023/01/10 10:05:50;;;;;;;12.70;6.55;;;205.30;2252.80;;;;;;5046059;28;20017;-94
2023/01/10 10:08:18;;;;;;;21.70;9.52;;;205.30;2252.80;;;;;;5027552;28;20025;-92
2023/01/10 10:10:53;;;;;;;16.15;7.13;;;205.30;2252.80;;;;;;5046407;28;20036;-93
2023/01/10 10:13:37;;;;;;;12.45;6.03;;;205.30;2252.80;;;;;;5061419;28;20095;-88
2023/01/10 10:16:38;;;;;;;13.90;7.00;;;205.40;2252.80;;;;;;5041326;28;20031;-92
2023/01/10 10:19:12;;;;;;;5.22;2.40;;;205.40;2252.80;;;;;;4957583;28;20035;-89
2023/01/10 10:21:53;;;;;;;5.85;3.10;;;205.30;2252.80;;;;;;4944971;28;20035;-82
2023/01/10 10:24:30;;;;;;;4.05;1.98;;;205.20;2252.80;;;;;;4941924;29;20028;-82
2023/01/10 10:27:07;;;;;;;3.03;1.88;;;205.20;2252.80;;;;;;4954093;28;20040;-83
2023/01/10 10:29:32;;;;;;;;;;;205.20;2252.80;;;;;;4945523;28;20027;-81
2023/01/10 10:32:30;;;;;;;4.60;2.53;;;205.20;2252.80;;;;;;4947053;28;20415;-80
2023/01/10 10:35:00;;;;;;;4.05;2.10;;;205.20;2252.80;;;;;;4889010;29;20048;-79
2023/01/10 10:37:34;;;;;;;4.82;2.40;;;205.20;2252.80;;;;;;4905740;29;20048;-80
2023/01/10 10:40:28;;;;;;;11.85;6.47;;;205.20;2252.80;;;;;;4906059;29;20040;-81
2023/01/10 10:42:57;;;;;;;7.40;4.07;;;205.20;2252.80;;;;;;4894324;29;20128;-80
2023/01/10 10:45:32;;;;;;;6.80;4.25;;;205.20;2252.80;;;;;;4908261;29;20123;-80
2023/01/10 10:48:06;;;;;;;6.80;3.80;;;205.20;2252.80;;;;;;4902691;29;20438;-81
2023/01/10 10:50:34;;;;;;;5.55;3.35;;;205.20;2252.80;;;;;;4899863;29;20137;-81
2023/01/10 10:53:02;;;;;;;6.00;4.10;;;205.20;2252.80;;;;;;4920073;29;20039;-80
2023/01/10 10:55:34;;;;;;;7.95;3.25;;;205.20;2252.80;;;;;;4922491;28;20051;-82
2023/01/10 10:58:02;;;;;;;10.00;5.40;;;205.20;2252.80;;;;;;4921210;29;20111;-81
2023/01/10 11:00:29;;;;;;;7.35;3.78;;;205.20;2252.80;;;;;;4931192;29;20039;-82
2023/01/10 11:03:42;;;;;;;14.10;7.47;;;205.00;2252.80;;;;;;4925253;29;20040;-91
2023/01/10 11:06:09;;;;;;;4.60;2.35;;;205.20;2252.80;;;;;;4944186;29;20031;-88
2023/01/10 11:08:42;;;;;;;6.70;3.95;;;205.20;2252.80;;;;;;4928623;29;20034;-80
2023/01/10 11:11:23;;;;;;;11.57;4.68;;;205.20;2252.80;;;;;;4985405;28;20041;-82
2023/01/10 11:14:01;;;;;;;10.00;4.50;;;205.20;2252.80;;;;;;5039781;28;20387;-83
2023/01/10 11:16:39;;;;;;;6.68;3.30;;;205.20;2252.80;;;;;;5036784;28;20041;-89
2023/01/10 11:19:18;;;;;;;6.75;2.60;;;205.20;2252.80;;;;;;5037132;28;20078;-88
2023/01/10 11:21:52;;;;;;;7.22;3.20;;;205.20;2252.80;;;;;;5033697;28;20028;-87
2023/01/10 11:24:20;;;;;;;4.45;2.25;;;205.30;2252.80;;;;;;5035859;28;20057;-81
2023/01/10 11:26:46;;;;;;;5.95;2.85;;;205.30;2252.80;;;;;;5031979;28;20034;-83
2023/01/10 11:29:24;;;;;;;5.75;2.65;;;205.30;2252.80;;;;;;5053522;28;20067;-90
2023/01/10 11:31:51;;;;;;;5.40;2.33;;;205.20;2252.80;;;;;;5041619;28;20035;-87
2023/01/10 11:34:36;;;;;;;4.43;2.67;;;205.30;2252.80;;;;;;5036628;28;20538;-79
2023/01/10 11:37:19;;;;;;;5.00;2.40;;;205.20;2252.80;;;;;;5040582;28;20052;-89
2023/01/10 11:39:45;;;;;;;4.53;2.22;;;205.20;2252.80;;;;;;5036525;28;20083;-85
2023/01/10 11:42:25;;;;;;;;;;;205.20;2252.80;;;;;;5037053;28;20025;-79
2023/01/10 11:44:50;;;;;;;6.55;2.60;;;205.20;2252.80;;;;;;5036556;28;19913;-83
2023/01/10 11:47:19;;;;;;;;;;;205.30;2252.80;;;;;;5037029;28;20108;-85
2023/01/10 11:49:47;;;;;;;5.18;2.70;;;205.30;2252.80;;;;;;5050448;28;20274;-87
2023/01/10 11:52:28;;;;;;;3.45;2.30;;;205.30;2252.80;;;;;;5035668;28;20028;-82
2023/01/10 11:54:59;;;;;;;5.03;2.45;;;205.30;2252.80;;;;;;5053612;28;20465;-82
2023/01/10 11:57:28;;;;;;;5.15;2.80;;;205.30;2252.80;;;;;;5036013;28;20095;-87
2023/01/10 11:59:54;;;;;;;7.47;3.15;;;205.30;2252.80;;;;;;5050110;28;20098;-81
2023/01/10 12:02:24;;;;;;;;;;;205.30;2252.80;;;;;;5033393;28;20483;-81
2023/01/10 12:04:51;;;;;;;4.63;2.70;;;205.40;2252.80;;;;;;5035815;28;19904;-81
2023/01/10 12:07:21;;;;;;;4.65;2.42;;;205.40;2252.80;;;;;;5036486;28;20075;-88
2023/01/10 12:09:56;;;;;;;3.22;2.15;;;205.20;2252.80;;;;;;5035760;28;20475;-79
2023/01/10 12:12:24;;;;;;;4.63;3.25;;;205.20;2252.80;;;;;;5030391;28;20029;-84
2023/01/10 12:14:52;;;;;;;6.55;2.30;;;205.20;2252.80;;;;;;5036191;28;20119;-82
2023/01/10 12:17:25;;;;;;;5.75;3.10;;;205.10;2252.80;;;;;;5036540;28;20041;-86
2023/01/10 12:19:59;;;;;;;6.78;4.65;;;205.20;2252.80;;;;;;5034561;28;20040;-86
2023/01/10 12:22:35;;;;;;;6.95;2.88;;;205.20;2252.80;;;;;;5032839;28;20028;-84
2023/01/10 12:25:02;;;;;;;;;;;205.30;2252.80;;;;;;5035813;28;20051;-88
2023/01/10 12:27:29;;;;;;;15.02;7.22;;;205.40;2252.80;;;;;;5036160;28;19995;-86
2023/01/10 12:30:05;;;;;;;23.65;12.07;;;205.40;2252.80;;;;;;5035760;28;20126;-79
2023/01/10 12:32:38;;;;;;;5.18;2.55;;;205.40;2252.80;;;;;;5035470;28;20021;-85
2023/01/10 12:35:12;;;;;;;7.40;3.20;;;205.30;2252.80;;;;;;5053135;28;20036;-84
2023/01/10 12:38:00;;;;;;;5.90;2.95;;;205.40;2252.80;;;;;;5035908;28;20021;-92
2023/01/10 12:40:40;;;;;;;6.88;3.10;;;205.30;2252.80;;;;;;5034816;28;20048;-92
2023/01/10 12:46:27;;;;;;;7.57;3.65;;;205.30;2252.80;;;;;;4954713;28;20034;-85
2023/01/10 12:49:07;;;;;;;6.68;3.30;;;205.30;2252.80;;;;;;4938131;29;20122;-89
2023/01/10 12:51:34;;;;;;;4.85;2.85;;;205.40;2252.80;;;;;;4940046;29;20036;-89
2023/01/10 12:54:18;;;;;;;6.10;3.08;;;205.40;2252.80;;;;;;4943802;29;20051;-95
2023/01/10 12:56:46;;;;;;;5.10;2.90;;;205.40;2252.80;;;;;;4938743;28;20141;-95